MDT,Max TemperatureF,Mean TemperatureF,Min TemperatureF,Max Dew PointF,MeanDew PointF,Min DewpointF,Max Humidity, Mean Humidity, Min Humidity, Max Sea Level PressureIn, Mean Sea Level PressureIn, Min Sea Level PressureIn, Max VisibilityMiles, Mean VisibilityMiles, Min VisibilityMiles, Max Wind SpeedMPH, Mean Wind SpeedMPH, Max Gust SpeedMPH,PrecipitationIn, CloudCover, Events, WindDirDegrees
2013-6-1,81,65,49,37,31,25,52,33,13,30.16,30.04,29.85,10,10,10,12,5,20,0.00,0,,128
2013-6-2,78,65,51,42,36,23,71,43,15,29.86,29.79,29.73,10,10,10,30,13,37,0.00,0,,304
2013-6-3,76,63,49,39,34,28,66,42,18,30.00,29.94,29.88,10,10,10,18,8,24,0.00,0,,316
2013-6-4,80,65,49,40,36,30,63,40,17,30.02,29.97,29.92,10,10,10,18,6,23,0.00,0,,281
2013-6-5,86,71,55,40,34,25,51,31,11,30.04,29.96,29.88,10,10,10,16,6,29,0.00,0,,141
2013-6-6,93,77,60,41,38,32,46,30,13,29.93,29.88,29.79,10,10,10,8,6,10,0.00,0,,128
2013-6-7,91,77,63,49,41,32,52,32,12,29.99,29.85,29.77,10,10,10,20,10,26,0.00,0,,309
2013-6-8,88,74,59,44,35,25,52,31,10,29.97,29.91,29.85,10,10,10,18,10,24,0.00,0,,304
2013-6-9,94,77,60,44,39,36,46,30,13,29.90,29.79,29.64,10,10,10,16,7,20,0.00,0,,314
2013-6-10,91,76,61,45,33,26,40,26,11,29.71,29.63,29.53,10,10,10,23,9,29,T,0,Thunderstorm,294
2013-6-11,85,73,60,39,34,28,37,27,16,29.80,29.74,29.63,10,10,10,14,6,18,0.00,0,,317
2013-6-12,81,66,51,39,34,27,54,34,14,29.94,29.86,29.78,10,10,8,22,11,29,T,1,Rain,302
2013-6-13,72,63,53,41,34,27,64,42,19,30.09,29.96,29.85,10,10,7,24,13,31,T,4,Rain,294
2013-6-14,71,59,46,40,34,27,76,48,20,30.22,30.13,30.03,10,10,10,14,5,20,0.00,1,,305
2013-6-15,85,68,50,33,26,17,50,29,8,30.03,29.93,29.83,10,10,10,15,7,18,0.00,0,,112
2013-6-16,92,73,54,36,29,15,43,25,6,29.92,29.86,29.80,10,10,10,10,4,14,0.00,0,,309
2013-6-17,93,76,58,41,32,23,40,24,8,29.95,29.83,29.68,10,10,10,14,6,17,0.00,0,,116
2013-6-18,88,73,57,45,36,25,46,29,11,29.82,29.69,29.56,10,9,1,37,9,46,0.00,1,,333
2013-6-19,69,58,47,50,44,35,83,56,28,30.05,29.84,29.61,10,10,9,24,10,29,0.01,6,Rain,308
2013-6-20,70,57,44,40,34,27,76,49,21,30.05,30.00,29.92,10,10,10,16,5,21,0.00,4,,335
2013-6-21,70,61,51,40,37,29,63,43,22,30.04,30.01,29.96,10,10,10,23,10,29,0.00,3,,306
2013-6-22,75,60,44,42,37,27,86,52,17,30.08,30.00,29.89,10,10,10,15,5,22,0.00,0,,319
2013-6-23,88,71,54,46,35,26,47,29,11,29.88,29.70,29.53,10,10,10,17,7,22,0.00,2,,114
2013-6-24,75,67,58,55,50,43,84,59,33,29.76,29.66,29.60,10,10,6,16,6,23,0.13,5,Rain,101
2013-6-25,71,64,57,62,54,46,100,72,44,29.92,29.85,29.77,10,10,5,20,8,23,0.27,7,Rain,134
2013-6-26,87,73,59,62,54,46,93,59,24,30.01,29.96,29.90,10,10,9,12,4,15,T,3,Rain,336
2013-6-27,96,77,58,58,51,38,87,51,14,30.12,30.06,30.00,10,10,10,15,4,17,0.00,0,,263
2013-6-28,101,84,66,57,47,42,49,32,14,30.11,30.00,29.86,10,10,10,20,6,25,0.00,0,,241
2013-6-29,103,87,70,60,51,42,53,33,13,30.02,29.85,29.74,10,10,10,20,8,29,0.00,0,,311
2013-6-30,104,86,68,62,56,48,66,41,15,29.95,29.86,29.76,10,10,10,14,5,17,0.00,0,,280